Time,TemperatureF,DewpointF,PressureIn,WindDirection,WindDirectionDegrees,WindSpeedMPH,WindSpeedGustMPH,Humidity,HourlyPrecipIn,Conditions,Clouds,dailyrainin,SoftwareType,DateUTC
2013-04-02 00:03:00,54.6,25.8,29.87,NW,317,3.0,5.0,33,0.00,,,0.00,WUHU216DAVISVP2,2013-04-02 07:03:00,
2013-04-02 00:09:00,54.8,26.0,29.86,NW,311,4.0,7.0,33,0.00,,,0.00,WUHU216DAVISVP2,2013-04-02 07:09:00,
2013-04-02 00:14:00,55.0,26.2,29.86,NW,312,5.0,8.0,33,0.00,,,0.00,WUHU216DAVISVP2,2013-04-02 07:14:00,
2013-04-02 00:19:00,55.2,26.4,29.86,NW,307,6.0,12.0,33,0.00,,,0.00,WUHU216DAVISVP2,2013-04-02 07:19:00,
2013-04-02 00:24:00,55.3,26.4,29.86,NW,304,6.0,8.0,33,0.00,,,0.00,WUHU216DAVISVP2,2013-04-02 07:24:00,
2013-04-02 00:29:00,55.2,26.4,29.86,NW,305,6.0,9.0,33,0.00,,,0.00,WUHU216DAVISVP2,2013-04-02 07:29:00,
2013-04-02 00:34:00,55.1,26.3,29.86,NW,310,5.0,9.0,33,0.00,,,0.00,WUHU216DAVISVP2,2013-04-02 07:34:00,
2013-04-02 00:39:00,55.1,25.5,29.86,NW,307,7.0,11.0,32,0.00,,,0.00,WUHU216DAVISVP2,2013-04-02 07:39:00,
2013-04-02 00:44:00,55.4,24.2,29.87,NW,306,7.0,13.0,30,0.00,,,0.00,WUHU216DAVISVP2,2013-04-02 07:44:00,
2013-04-02 00:49:00,55.5,23.5,29.87,NW,309,7.0,11.0,29,0.00,,,0.00,WUHU216DAVISVP2,2013-04-02 07:49:00,
2013-04-02 00:54:00,54.5,24.2,29.87,NW,322,4.0,7.0,31,0.00,,,0.00,WUHU216DAVISVP2,2013-04-02 07:54:00,
2013-04-02 00:59:00,53.4,24.0,29.87,NW,320,3.0,6.0,32,0.00,,,0.00,WUHU216DAVISVP2,2013-04-02 07:59:00,
2013-04-02 01:07:00,52.4,23.9,29.87,NNW,327,4.0,7.0,33,0.00,,,0.00,WUHU216DAVISVP2,2013-04-02 08:07:00,
2013-04-02 01:12:00,51.7,24.0,29.86,NNW,329,4.0,6.0,34,0.00,,,0.00,WUHU216DAVISVP2,2013-04-02 08:12:00,
2013-04-02 01:17:00,51.3,23.6,29.86,NW,323,3.0,6.0,34,0.00,,,0.00,WUHU216DAVISVP2,2013-04-02 08:17:00,
2013-04-02 01:23:00,51.7,23.3,29.86,NW,319,4.0,7.0,33,0.00,,,0.00,WUHU216DAVISVP2,2013-04-02 08:23:00,
2013-04-02 01:28:00,52.1,22.9,29.86,NW,316,4.0,7.0,32,0.00,,,0.00,WUHU216DAVISVP2,2013-04-02 08:28:00,
2013-04-02 01:35:00,52.8,22.8,29.86,NW,309,4.0,8.0,31,0.00,,,0.00,WUHU216DAVISVP2,2013-04-02 08:35:00,
2013-04-02 01:42:00,54.2,23.2,29.86,WNW,300,6.0,10.0,30,0.00,,,0.00,WUHU216DAVISVP2,2013-04-02 08:42:00,
2013-04-02 01:47:00,54.4,22.6,29.86,NW,305,5.0,6.0,29,0.00,,,0.00,WUHU216DAVISVP2,2013-04-02 08:47:00,
2013-04-02 01:52:00,54.0,23.0,29.86,NW,304,2.0,5.0,30,0.00,,,0.00,WUHU216DAVISVP2,2013-04-02 08:52:00,
2013-04-02 01:57:00,53.7,22.0,29.86,WNW,302,4.0,7.0,29,0.00,,,0.00,WUHU216DAVISVP2,2013-04-02 08:57:00,
2013-04-02 02:02:00,52.3,22.3,29.86,NW,324,2.0,4.0,31,0.00,,,0.00,WUHU216DAVISVP2,2013-04-02 09:02:00,
2013-04-02 02:07:00,51.7,22.5,29.85,NW,308,3.0,5.0,32,0.00,,,0.00,WUHU216DAVISVP2,2013-04-02 09:07:00,
2013-04-02 02:12:00,50.1,22.6,29.85,NW,321,2.0,4.0,34,0.00,,,0.00,WUHU216DAVISVP2,2013-04-02 09:12:00,
2013-04-02 02:17:00,48.7,22.0,29.85,NW,315,2.0,3.0,35,0.00,,,0.00,WUHU216DAVISVP2,2013-04-02 09:17:00,
2013-04-02 02:22:00,47.1,21.9,29.85,NNW,338,3.0,4.0,37,0.00,,,0.00,WUHU216DAVISVP2,2013-04-02 09:22:00,
2013-04-02 02:27:00,46.1,21.7,29.85,NW,325,3.0,4.0,38,0.00,,,0.00,WUHU216DAVISVP2,2013-04-02 09:27:00,
2013-04-02 02:32:00,45.2,22.1,29.85,NNW,347,3.0,4.0,40,0.00,,,0.00,WUHU216DAVISVP2,2013-04-02 09:32:00,
2013-04-02 02:37:00,44.7,21.7,29.85,North,352,3.0,4.0,40,0.00,,,0.00,WUHU216DAVISVP2,2013-04-02 09:37:00,
2013-04-02 02:43:00,44.5,22.1,29.85,NNW,344,4.0,5.0,41,0.00,,,0.00,WUHU216DAVISVP2,2013-04-02 09:43:00,
2013-04-02 02:49:00,44.5,22.1,29.85,NNW,345,3.0,4.0,41,0.00,,,0.00,WUHU216DAVISVP2,2013-04-02 09:49:00,
2013-04-02 02:55:00,44.5,21.5,29.85,NNW,345,1.0,2.0,40,0.00,,,0.00,WUHU216DAVISVP2,2013-04-02 09:55:00,
2013-04-02 03:00:00,44.1,21.7,29.85,NNW,345,1.0,1.0,41,0.00,,,0.00,WUHU216DAVISVP2,2013-04-02 10:00:00,
2013-04-02 03:05:00,43.7,21.3,29.85,NNW,345,2.0,3.0,41,0.00,,,0.00,WUHU216DAVISVP2,2013-04-02 10:05:00,
2013-04-02 03:10:00,43.6,21.3,29.85,NNW,340,3.0,5.0,41,0.00,,,0.00,WUHU216DAVISVP2,2013-04-02 10:10:00,
2013-04-02 03:15:00,43.7,21.3,29.84,NNW,345,3.0,5.0,41,0.00,,,0.00,WUHU216DAVISVP2,2013-04-02 10:15:00,
2013-04-02 03:20:00,44.1,21.1,29.85,NNW,343,3.0,6.0,40,0.00,,,0.00,WUHU216DAVISVP2,2013-04-02 10:20:00,
2013-04-02 03:25:00,44.6,21.0,29.85,NNW,341,3.0,5.0,39,0.00,,,0.00,WUHU216DAVISVP2,2013-04-02 10:25:00,
2013-04-02 03:30:00,44.9,21.2,29.85,NNW,343,4.0,5.0,39,0.00,,,0.00,WUHU216DAVISVP2,2013-04-02 10:30:00,
2013-04-02 03:35:00,45.4,21.0,29.85,NNW,342,3.0,4.0,38,0.00,,,0.00,WUHU216DAVISVP2,2013-04-02 10:35:00,
2013-04-02 03:40:00,45.7,21.3,29.85,NNW,332,2.0,4.0,38,0.00,,,0.00,WUHU216DAVISVP2,2013-04-02 10:40:00,
2013-04-02 03:45:00,45.1,20.8,29.85,NNW,338,2.0,4.0,38,0.00,,,0.00,WUHU216DAVISVP2,2013-04-02 10:45:00,
2013-04-02 03:51:00,45.0,20.7,29.85,NNW,337,2.0,3.0,38,0.00,,,0.00,WUHU216DAVISVP2,2013-04-02 10:51:00,
2013-04-02 03:56:00,45.5,20.5,29.85,NNW,338,2.0,4.0,37,0.00,,,0.00,WUHU216DAVISVP2,2013-04-02 10:56:00,
2013-04-02 04:01:00,45.0,20.7,29.85,NNW,339,2.0,3.0,38,0.00,,,0.00,WUHU216DAVISVP2,2013-04-02 11:01:00,
2013-04-02 04:06:00,44.3,20.7,29.86,NNW,339,3.0,5.0,39,0.00,,,0.00,WUHU216DAVISVP2,2013-04-02 11:06:00,
2013-04-02 04:13:00,44.5,20.2,29.86,NNW,332,2.0,4.0,38,0.00,,,0.00,WUHU216DAVISVP2,2013-04-02 11:13:00,
2013-04-02 04:20:00,47.0,19.8,29.86,WNW,299,4.0,6.0,34,0.00,,,0.00,WUHU216DAVISVP2,2013-04-02 11:20:00,
2013-04-02 04:27:00,50.8,20.2,29.87,WNW,296,6.0,9.0,30,0.00,,,0.00,WUHU216DAVISVP2,2013-04-02 11:27:00,
2013-04-02 04:33:00,51.9,19.6,29.87,WNW,302,9.0,13.0,28,0.00,,,0.00,WUHU216DAVISVP2,2013-04-02 11:33:00,
2013-04-02 04:40:00,51.3,19.9,29.87,NW,313,5.0,13.0,29,0.00,,,0.00,WUHU216DAVISVP2,2013-04-02 11:40:00,
2013-04-02 04:47:00,49.8,19.4,29.87,NW,312,7.0,10.0,30,0.00,,,0.00,WUHU216DAVISVP2,2013-04-02 11:47:00,
2013-04-02 04:54:00,49.4,19.0,29.87,NW,316,4.0,8.0,30,0.00,,,0.00,WUHU216DAVISVP2,2013-04-02 11:54:00,
2013-04-02 05:01:00,49.4,19.8,29.87,NW,310,4.0,7.0,31,0.00,,,0.00,WUHU216DAVISVP2,2013-04-02 12:01:00,
2013-04-02 05:07:00,49.3,19.7,29.87,NW,311,3.0,7.0,31,0.00,,,0.00,WUHU216DAVISVP2,2013-04-02 12:07:00,
2013-04-02 05:14:00,49.3,18.9,29.88,NW,313,3.0,6.0,30,0.00,,,0.00,WUHU216DAVISVP2,2013-04-02 12:14:00,
2013-04-02 05:21:00,49.1,19.5,29.87,NW,317,2.0,4.0,31,0.00,,,0.00,WUHU216DAVISVP2,2013-04-02 12:21:00,
2013-04-02 05:28:00,48.9,19.3,29.87,NW,313,2.0,4.0,31,0.00,,,0.00,WUHU216DAVISVP2,2013-04-02 12:28:00,
2013-04-02 05:35:00,48.3,18.8,29.87,North,0,0.0,0.0,31,0.00,,,0.00,WUHU216DAVISVP2,2013-04-02 12:35:00,
2013-04-02 05:41:00,46.4,18.6,29.87,North,0,0.0,0.0,33,0.00,,,0.00,WUHU216DAVISVP2,2013-04-02 12:41:00,
2013-04-02 05:48:00,44.8,18.6,29.87,North,0,0.0,0.0,35,0.00,,,0.00,WUHU216DAVISVP2,2013-04-02 12:48:00,
2013-04-02 05:55:00,43.2,18.4,29.88,NW,319,1.0,3.0,37,0.00,,,0.00,WUHU216DAVISVP2,2013-04-02 12:55:00,
2013-04-02 06:02:00,43.7,19.5,29.88,WNW,292,2.0,4.0,38,0.00,,,0.00,WUHU216DAVISVP2,2013-04-02 13:02:00,
2013-04-02 06:09:00,45.5,19.2,29.88,NW,315,2.0,4.0,35,0.00,,,0.00,WUHU216DAVISVP2,2013-04-02 13:09:00,
2013-04-02 06:15:00,44.7,19.8,29.88,NNW,338,4.0,5.0,37,0.00,,,0.00,WUHU216DAVISVP2,2013-04-02 13:15:00,
2013-04-02 06:22:00,45.7,20.0,29.87,NW,325,1.0,2.0,36,0.00,,,0.00,WUHU216DAVISVP2,2013-04-02 13:22:00,
2013-04-02 06:27:00,46.8,20.3,29.87,NNW,332,2.0,4.0,35,0.00,,,0.00,WUHU216DAVISVP2,2013-04-02 13:27:00,
2013-04-02 06:32:00,48.1,20.1,29.87,NNW,339,1.0,2.0,33,0.00,,,0.00,WUHU216DAVISVP2,2013-04-02 13:32:00,
2013-04-02 06:37:00,49.1,20.3,29.87,NNW,338,2.0,4.0,32,0.00,,,0.00,WUHU216DAVISVP2,2013-04-02 13:37:00,
2013-04-02 06:42:00,49.9,21.0,29.87,NW,315,2.0,4.0,32,0.00,,,0.00,WUHU216DAVISVP2,2013-04-02 13:42:00,
2013-04-02 06:47:00,51.0,21.2,29.88,NW,314,2.0,5.0,31,0.00,,,0.00,WUHU216DAVISVP2,2013-04-02 13:47:00,
2013-04-02 06:52:00,51.9,21.2,29.88,NW,318,2.0,4.0,30,0.00,,,0.00,WUHU216DAVISVP2,2013-04-02 13:52:00,
2013-04-02 06:58:00,51.6,21.7,29.88,NNW,339,4.0,7.0,31,0.00,,,0.00,WUHU216DAVISVP2,2013-04-02 13:58:00,
2013-04-02 07:03:00,51.4,21.5,29.88,NNW,344,4.0,8.0,31,0.00,,,0.00,WUHU216DAVISVP2,2013-04-02 14:03:00,
2013-04-02 07:08:00,52.0,21.3,29.88,NNW,342,2.0,3.0,30,0.00,,,0.00,WUHU216DAVISVP2,2013-04-02 14:08:00,
2013-04-02 07:13:00,52.9,21.3,29.88,NNW,344,2.0,4.0,29,0.00,,,0.00,WUHU216DAVISVP2,2013-04-02 14:13:00,
2013-04-02 07:18:00,53.8,21.2,29.88,NNW,334,4.0,7.0,28,0.00,,,0.00,WUHU216DAVISVP2,2013-04-02 14:18:00,
2013-04-02 07:23:00,54.4,20.9,29.88,WNW,292,3.0,7.0,27,0.00,,,0.00,WUHU216DAVISVP2,2013-04-02 14:23:00,
2013-04-02 07:28:00,54.8,21.3,29.88,WNW,286,4.0,7.0,27,0.00,,,0.00,WUHU216DAVISVP2,2013-04-02 14:28:00,
2013-04-02 07:33:00,55.2,20.7,29.89,WNW,282,3.0,6.0,26,0.00,,,0.00,WUHU216DAVISVP2,2013-04-02 14:33:00,
2013-04-02 07:38:00,55.8,21.2,29.89,WNW,294,3.0,5.0,26,0.00,,,0.00,WUHU216DAVISVP2,2013-04-02 14:38:00,
2013-04-02 07:43:00,56.2,21.6,29.89,WNW,302,4.0,7.0,26,0.00,,,0.00,WUHU216DAVISVP2,2013-04-02 14:43:00,
2013-04-02 07:48:00,56.1,20.6,29.89,WNW,285,6.0,10.0,25,0.00,,,0.00,WUHU216DAVISVP2,2013-04-02 14:48:00,
2013-04-02 07:53:00,56.2,21.6,29.89,WNW,291,5.0,8.0,26,0.00,,,0.00,WUHU216DAVISVP2,2013-04-02 14:53:00,
2013-04-02 07:58:00,56.8,21.2,29.89,NW,310,5.0,10.0,25,0.00,,,0.00,WUHU216DAVISVP2,2013-04-02 14:58:00,
2013-04-02 08:03:00,57.1,21.4,29.89,NW,317,5.0,8.0,25,0.00,,,0.00,WUHU216DAVISVP2,2013-04-02 15:03:00,
2013-04-02 08:08:00,57.7,22.0,29.89,NW,320,4.0,10.0,25,0.00,,,0.00,WUHU216DAVISVP2,2013-04-02 15:08:00,
2013-04-02 08:13:00,58.3,21.5,29.89,WNW,298,4.0,9.0,24,0.00,,,0.00,WUHU216DAVISVP2,2013-04-02 15:13:00,
2013-04-02 08:18:00,58.8,21.9,29.89,NW,306,4.0,9.0,24,0.00,,,0.00,WUHU216DAVISVP2,2013-04-02 15:18:00,
2013-04-02 08:24:00,59.2,21.3,29.89,NW,317,5.0,9.0,23,0.00,,,0.00,WUHU216DAVISVP2,2013-04-02 15:24:00,
2013-04-02 08:29:00,59.6,21.6,29.90,NW,310,5.0,9.0,23,0.00,,,0.00,WUHU216DAVISVP2,2013-04-02 15:29:00,
2013-04-02 08:34:00,60.2,21.1,29.90,NW,312,5.0,8.0,22,0.00,,,0.00,WUHU216DAVISVP2,2013-04-02 15:34:00,
2013-04-02 08:39:00,60.2,21.1,29.90,WNW,286,6.0,10.0,22,0.00,,,0.00,WUHU216DAVISVP2,2013-04-02 15:39:00,
2013-04-02 08:44:00,60.0,20.9,29.90,WNW,287,6.0,10.0,22,0.00,,,0.00,WUHU216DAVISVP2,2013-04-02 15:44:00,
2013-04-02 08:49:00,60.2,21.1,29.90,West,272,6.0,12.0,22,0.00,,,0.00,WUHU216DAVISVP2,2013-04-02 15:49:00,
2013-04-02 08:54:00,60.3,22.2,29.90,WNW,285,4.0,8.0,23,0.00,,,0.00,WUHU216DAVISVP2,2013-04-02 15:54:00,
2013-04-02 08:59:00,60.2,22.1,29.90,West,277,7.0,11.0,23,0.00,,,0.00,WUHU216DAVISVP2,2013-04-02 15:59:00,
2013-04-02 09:04:00,60.3,22.2,29.90,WNW,286,5.0,9.0,23,0.00,,,0.00,WUHU216DAVISVP2,2013-04-02 16:04:00,
2013-04-02 09:09:00,60.5,22.4,29.91,WNW,283,5.0,9.0,23,0.00,,,0.00,WUHU216DAVISVP2,2013-04-02 16:09:00,
2013-04-02 09:15:00,61.2,23.0,29.91,West,279,5.0,11.0,23,0.00,,,0.00,WUHU216DAVISVP2,2013-04-02 16:15:00,
2013-04-02 09:20:00,61.5,23.2,29.91,West,279,5.0,9.0,23,0.00,,,0.00,WUHU216DAVISVP2,2013-04-02 16:20:00,
2013-04-02 09:25:00,61.8,22.4,29.91,WNW,290,6.0,11.0,22,0.00,,,0.00,WUHU216DAVISVP2,2013-04-02 16:25:00,
2013-04-02 09:30:00,62.0,23.6,29.91,West,279,5.0,11.0,23,0.00,,,0.00,WUHU216DAVISVP2,2013-04-02 16:30:00,
2013-04-02 09:35:00,61.7,23.4,29.91,West,277,7.0,14.0,23,0.00,,,0.00,WUHU216DAVISVP2,2013-04-02 16:35:00,
2013-04-02 09:40:00,62.1,23.7,29.91,West,280,6.0,11.0,23,0.00,,,0.00,WUHU216DAVISVP2,2013-04-02 16:40:00,
2013-04-02 09:45:00,62.7,23.2,29.91,WNW,285,6.0,9.0,22,0.00,,,0.00,WUHU216DAVISVP2,2013-04-02 16:45:00,
2013-04-02 09:50:00,63.2,22.5,29.91,West,260,7.0,13.0,21,0.00,,,0.00,WUHU216DAVISVP2,2013-04-02 16:50:00,
2013-04-02 09:55:00,62.5,21.9,29.91,WSW,258,7.0,13.0,21,0.00,,,0.00,WUHU216DAVISVP2,2013-04-02 16:55:00,
2013-04-02 10:00:00,63.3,21.5,29.91,West,269,6.0,10.0,20,0.00,,,0.00,WUHU216DAVISVP2,2013-04-02 17:00:00,
2013-04-02 10:05:00,63.3,21.5,29.91,WSW,257,4.0,10.0,20,0.00,,,0.00,WUHU216DAVISVP2,2013-04-02 17:05:00,
2013-04-02 10:10:00,63.7,22.9,29.91,West,281,6.0,16.0,21,0.00,,,0.00,WUHU216DAVISVP2,2013-04-02 17:10:00,
2013-04-02 10:15:00,63.7,20.6,29.91,West,273,7.0,14.0,19,0.00,,,0.00,WUHU216DAVISVP2,2013-04-02 17:15:00,
2013-04-02 10:20:00,63.8,20.7,29.91,West,261,7.0,13.0,19,0.00,,,0.00,WUHU216DAVISVP2,2013-04-02 17:20:00,
2013-04-02 10:26:00,64.3,21.1,29.91,West,275,7.0,11.0,19,0.00,,,0.00,WUHU216DAVISVP2,2013-04-02 17:26:00,
2013-04-02 10:31:00,64.4,19.9,29.91,WNW,286,7.0,13.0,18,0.00,,,0.00,WUHU216DAVISVP2,2013-04-02 17:31:00,
2013-04-02 10:36:00,64.9,20.3,29.91,West,267,8.0,15.0,18,0.00,,,0.00,WUHU216DAVISVP2,2013-04-02 17:36:00,
2013-04-02 10:41:00,64.2,19.7,29.91,WSW,257,10.0,17.0,18,0.00,,,0.00,WUHU216DAVISVP2,2013-04-02 17:41:00,
2013-04-02 10:47:00,64.1,19.7,29.91,West,279,7.0,15.0,18,0.00,,,0.00,WUHU216DAVISVP2,2013-04-02 17:47:00,
2013-04-02 10:52:00,64.1,19.7,29.91,West,270,7.0,13.0,18,0.00,,,0.00,WUHU216DAVISVP2,2013-04-02 17:52:00,
2013-04-02 10:57:00,64.4,19.9,29.91,West,274,7.0,16.0,18,0.00,,,0.00,WUHU216DAVISVP2,2013-04-02 17:57:00,
2013-04-02 11:02:00,64.8,18.9,29.91,WNW,285,6.0,12.0,17,0.00,,,0.00,WUHU216DAVISVP2,2013-04-02 18:02:00,
2013-04-02 11:07:00,64.9,17.6,29.91,West,264,7.0,14.0,16,0.00,,,0.00,WUHU216DAVISVP2,2013-04-02 18:07:00,
2013-04-02 11:12:00,64.7,18.8,29.90,West,270,7.0,14.0,17,0.00,,,0.00,WUHU216DAVISVP2,2013-04-02 18:12:00,
2013-04-02 11:17:00,64.5,18.7,29.90,WNW,285,6.0,10.0,17,0.00,,,0.00,WUHU216DAVISVP2,2013-04-02 18:17:00,
2013-04-02 11:22:00,64.3,18.5,29.90,WNW,295,10.0,14.0,17,0.00,,,0.00,WUHU216DAVISVP2,2013-04-02 18:22:00,
2013-04-02 11:27:00,64.9,19.0,29.90,West,280,8.0,14.0,17,0.00,,,0.00,WUHU216DAVISVP2,2013-04-02 18:27:00,
2013-04-02 11:32:00,64.4,18.6,29.90,NW,305,6.0,11.0,17,0.00,,,0.00,WUHU216DAVISVP2,2013-04-02 18:32:00,
2013-04-02 11:37:00,65.1,16.2,29.89,WNW,290,6.0,13.0,15,0.00,,,0.00,WUHU216DAVISVP2,2013-04-02 18:37:00,
2013-04-02 11:42:00,65.9,18.4,29.89,WSW,254,7.0,12.0,16,0.00,,,0.00,WUHU216DAVISVP2,2013-04-02 18:42:00,
2013-04-02 11:48:00,65.6,18.1,29.89,WNW,283,7.0,14.0,16,0.00,,,0.00,WUHU216DAVISVP2,2013-04-02 18:48:00,
2013-04-02 11:53:00,66.0,18.4,29.89,WNW,288,5.0,8.0,16,0.00,,,0.00,WUHU216DAVISVP2,2013-04-02 18:53:00,
2013-04-02 11:58:00,67.0,16.1,29.89,WSW,258,8.0,14.0,14,0.00,,,0.00,WUHU216DAVISVP2,2013-04-02 18:58:00,
2013-04-02 12:03:00,66.7,15.9,29.89,WSW,248,8.0,15.0,14,0.00,,,0.00,WUHU216DAVISVP2,2013-04-02 19:03:00,
2013-04-02 12:08:00,66.5,17.3,29.89,SW,233,8.0,12.0,15,0.00,,,0.00,WUHU216DAVISVP2,2013-04-02 19:08:00,
2013-04-02 12:13:00,66.7,17.5,29.89,West,264,9.0,16.0,15,0.00,,,0.00,WUHU216DAVISVP2,2013-04-02 19:13:00,
2013-04-02 12:18:00,66.4,17.3,29.88,WSW,241,8.0,18.0,15,0.00,,,0.00,WUHU216DAVISVP2,2013-04-02 19:18:00,
2013-04-02 12:23:00,66.7,19.0,29.88,West,268,4.0,11.0,16,0.00,,,0.00,WUHU216DAVISVP2,2013-04-02 19:23:00,
2013-04-02 12:28:00,67.7,13.1,29.88,WNW,293,8.0,13.0,12,0.00,,,0.00,WUHU216DAVISVP2,2013-04-02 19:28:00,
2013-04-02 12:33:00,67.8,13.1,29.88,West,280,9.0,16.0,12,0.00,,,0.00,WUHU216DAVISVP2,2013-04-02 19:33:00,
2013-04-02 12:38:00,67.6,14.8,29.88,WNW,298,10.0,17.0,13,0.00,,,0.00,WUHU216DAVISVP2,2013-04-02 19:38:00,
2013-04-02 12:44:00,67.4,16.4,29.88,WNW,287,9.0,15.0,14,0.00,,,0.00,WUHU216DAVISVP2,2013-04-02 19:44:00,
2013-04-02 12:49:00,67.5,16.5,29.87,WNW,282,11.0,17.0,14,0.00,,,0.00,WUHU216DAVISVP2,2013-04-02 19:49:00,
2013-04-02 12:54:00,67.6,14.8,29.87,WNW,299,7.0,12.0,13,0.00,,,0.00,WUHU216DAVISVP2,2013-04-02 19:54:00,
2013-04-02 12:59:00,68.3,15.4,29.86,WSW,253,8.0,12.0,13,0.00,,,0.00,WUHU216DAVISVP2,2013-04-02 19:59:00,
2013-04-02 13:05:00,69.4,16.3,29.86,West,266,9.0,15.0,13,0.00,,,0.00,WUHU216DAVISVP2,2013-04-02 20:05:00,
2013-04-02 13:10:00,68.6,17.4,29.86,NW,311,8.0,15.0,14,0.00,,,0.00,WUHU216DAVISVP2,2013-04-02 20:10:00,
2013-04-02 13:15:00,68.0,16.9,29.86,NW,318,6.0,16.0,14,0.00,,,0.00,WUHU216DAVISVP2,2013-04-02 20:15:00,
2013-04-02 13:20:00,68.4,15.5,29.86,WNW,294,9.0,15.0,13,0.00,,,0.00,WUHU216DAVISVP2,2013-04-02 20:20:00,
2013-04-02 13:25:00,68.6,15.6,29.86,WNW,298,6.0,13.0,13,0.00,,,0.00,WUHU216DAVISVP2,2013-04-02 20:25:00,
2013-04-02 13:30:00,69.1,16.0,29.85,West,279,12.0,25.0,13,0.00,,,0.00,WUHU216DAVISVP2,2013-04-02 20:30:00,
2013-04-02 13:35:00,69.3,14.3,29.85,West,271,11.0,19.0,12,0.00,,,0.00,WUHU216DAVISVP2,2013-04-02 20:35:00,
2013-04-02 13:40:00,70.0,12.8,29.85,West,263,9.0,19.0,11,0.00,,,0.00,WUHU216DAVISVP2,2013-04-02 20:40:00,
2013-04-02 13:45:00,69.7,14.6,29.85,WNW,287,9.0,17.0,12,0.00,,,0.00,WUHU216DAVISVP2,2013-04-02 20:45:00,
2013-04-02 13:50:00,69.7,14.6,29.85,West,270,11.0,17.0,12,0.00,,,0.00,WUHU216DAVISVP2,2013-04-02 20:50:00,
2013-04-02 13:55:00,70.0,14.8,29.85,WNW,291,8.0,13.0,12,0.00,,,0.00,WUHU216DAVISVP2,2013-04-02 20:55:00,
2013-04-02 14:00:00,70.6,13.3,29.85,WNW,297,7.0,13.0,11,0.00,,,0.00,WUHU216DAVISVP2,2013-04-02 21:00:00,
2013-04-02 14:06:00,70.6,13.3,29.85,WNW,290,8.0,18.0,11,0.00,,,0.00,WUHU216DAVISVP2,2013-04-02 21:06:00,
2013-04-02 14:11:00,70.0,12.8,29.85,West,273,8.0,15.0,11,0.00,,,0.00,WUHU216DAVISVP2,2013-04-02 21:11:00,
2013-04-02 14:16:00,70.4,13.1,29.85,WNW,283,9.0,16.0,11,0.00,,,0.00,WUHU216DAVISVP2,2013-04-02 21:16:00,
2013-04-02 14:21:00,70.5,13.2,29.84,West,274,7.0,19.0,11,0.00,,,0.00,WUHU216DAVISVP2,2013-04-02 21:21:00,
2013-04-02 14:27:00,70.6,13.3,29.84,WNW,282,11.0,21.0,11,0.00,,,0.00,WUHU216DAVISVP2,2013-04-02 21:27:00,
2013-04-02 14:32:00,70.3,13.0,29.84,WNW,294,11.0,18.0,11,0.00,,,0.00,WUHU216DAVISVP2,2013-04-02 21:32:00,
2013-04-02 14:37:00,70.3,13.0,29.84,WNW,293,10.0,17.0,11,0.00,,,0.00,WUHU216DAVISVP2,2013-04-02 21:37:00,
2013-04-02 14:42:00,70.3,10.8,29.84,WNW,283,11.0,20.0,10,0.00,,,0.00,WUHU216DAVISVP2,2013-04-02 21:42:00,
2013-04-02 14:47:00,70.7,13.4,29.83,WNW,285,9.0,16.0,11,0.00,,,0.00,WUHU216DAVISVP2,2013-04-02 21:47:00,
2013-04-02 14:52:00,70.3,13.0,29.84,WNW,295,12.0,23.0,11,0.00,,,0.00,WUHU216DAVISVP2,2013-04-02 21:52:00,
2013-04-02 14:57:00,69.6,12.5,29.83,West,281,13.0,21.0,11,0.00,,,0.00,WUHU216DAVISVP2,2013-04-02 21:57:00,
2013-04-02 15:02:00,69.9,12.7,29.83,WNW,288,9.0,15.0,11,0.00,,,0.00,WUHU216DAVISVP2,2013-04-02 22:02:00,
2013-04-02 15:07:00,69.6,12.5,29.83,West,262,10.0,17.0,11,0.00,,,0.00,WUHU216DAVISVP2,2013-04-02 22:07:00,
2013-04-02 15:12:00,69.8,10.5,29.84,West,277,13.0,21.0,10,0.00,,,0.00,WUHU216DAVISVP2,2013-04-02 22:12:00,
2013-04-02 15:17:00,69.9,10.5,29.83,WNW,287,10.0,17.0,10,0.00,,,0.00,WUHU216DAVISVP2,2013-04-02 22:17:00,
2013-04-02 15:23:00,69.7,10.4,29.83,WNW,294,10.0,17.0,10,0.00,,,0.00,WUHU216DAVISVP2,2013-04-02 22:23:00,
2013-04-02 15:28:00,69.6,10.3,29.83,West,271,11.0,17.0,10,0.00,,,0.00,WUHU216DAVISVP2,2013-04-02 22:28:00,
2013-04-02 15:33:00,69.5,10.2,29.84,WNW,286,9.0,16.0,10,0.00,,,0.00,WUHU216DAVISVP2,2013-04-02 22:33:00,
2013-04-02 15:38:00,69.9,10.5,29.83,WNW,288,9.0,17.0,10,0.00,,,0.00,WUHU216DAVISVP2,2013-04-02 22:38:00,
2013-04-02 15:43:00,69.7,10.4,29.83,WNW,287,10.0,17.0,10,0.00,,,0.00,WUHU216DAVISVP2,2013-04-02 22:43:00,
2013-04-02 15:48:00,69.5,10.2,29.83,WNW,294,10.0,16.0,10,0.00,,,0.00,WUHU216DAVISVP2,2013-04-02 22:48:00,
2013-04-02 15:53:00,69.4,10.1,29.84,WNW,290,10.0,16.0,10,0.00,,,0.00,WUHU216DAVISVP2,2013-04-02 22:53:00,
2013-04-02 15:58:00,68.6,9.5,29.84,WNW,296,11.0,19.0,10,0.00,,,0.00,WUHU216DAVISVP2,2013-04-02 22:58:00,
2013-04-02 16:03:00,68.2,9.2,29.84,WNW,290,10.0,23.0,10,0.00,,,0.00,WUHU216DAVISVP2,2013-04-02 23:03:00,
2013-04-02 16:08:00,68.0,11.3,29.84,WNW,290,12.0,19.0,11,0.00,,,0.00,WUHU216DAVISVP2,2013-04-02 23:08:00,
2013-04-02 16:13:00,67.3,10.7,29.84,West,278,12.0,18.0,11,0.00,,,0.00,WUHU216DAVISVP2,2013-04-02 23:13:00,
2013-04-02 16:18:00,67.1,10.6,29.84,WNW,288,11.0,20.0,11,0.00,,,0.00,WUHU216DAVISVP2,2013-04-02 23:18:00,
2013-04-02 16:23:00,67.5,12.9,29.84,WNW,283,10.0,19.0,12,0.00,,,0.00,WUHU216DAVISVP2,2013-04-02 23:23:00,
2013-04-02 16:28:00,67.4,10.8,29.84,WNW,292,12.0,24.0,11,0.00,,,0.00,WUHU216DAVISVP2,2013-04-02 23:28:00,
2013-04-02 16:34:00,67.0,12.5,29.85,WNW,285,12.0,19.0,12,0.00,,,0.00,WUHU216DAVISVP2,2013-04-02 23:34:00,
2013-04-02 16:39:00,66.8,10.3,29.84,WNW,293,13.0,23.0,11,0.00,,,0.00,WUHU216DAVISVP2,2013-04-02 23:39:00,
2013-04-02 16:44:00,67.0,10.5,29.84,WNW,297,10.0,18.0,11,0.00,,,0.00,WUHU216DAVISVP2,2013-04-02 23:44:00,
2013-04-02 16:49:00,67.1,10.6,29.84,WNW,300,9.0,18.0,11,0.00,,,0.00,WUHU216DAVISVP2,2013-04-02 23:49:00,
2013-04-02 16:54:00,67.0,12.5,29.85,WNW,291,10.0,17.0,12,0.00,,,0.00,WUHU216DAVISVP2,2013-04-02 23:54:00,
2013-04-02 16:59:00,66.8,12.4,29.85,WNW,295,10.0,16.0,12,0.00,,,0.00,WUHU216DAVISVP2,2013-04-02 23:59:00,
2013-04-02 17:04:00,66.3,12.0,29.85,WNW,291,11.0,19.0,12,0.00,,,0.00,WUHU216DAVISVP2,2013-04-03 00:04:00,
2013-04-02 17:09:00,66.2,11.9,29.85,WNW,296,8.0,16.0,12,0.00,,,0.00,WUHU216DAVISVP2,2013-04-03 00:09:00,
2013-04-02 17:14:00,66.1,11.8,29.85,NW,305,9.0,18.0,12,0.00,,,0.00,WUHU216DAVISVP2,2013-04-03 00:14:00,
2013-04-02 17:19:00,65.6,11.4,29.85,WNW,293,12.0,19.0,12,0.00,,,0.00,WUHU216DAVISVP2,2013-04-03 00:19:00,
2013-04-02 17:24:00,65.0,12.8,29.86,WNW,294,9.0,15.0,13,0.00,,,0.00,WUHU216DAVISVP2,2013-04-03 00:24:00,
2013-04-02 17:29:00,64.9,12.7,29.85,WNW,295,10.0,17.0,13,0.00,,,0.00,WUHU216DAVISVP2,2013-04-03 00:29:00,
2013-04-02 17:34:00,64.3,12.2,29.86,WNW,300,10.0,19.0,13,0.00,,,0.00,WUHU216DAVISVP2,2013-04-03 00:34:00,
2013-04-02 17:39:00,63.8,13.6,29.86,WNW,300,11.0,23.0,14,0.00,,,0.00,WUHU216DAVISVP2,2013-04-03 00:39:00,
2013-04-02 17:44:00,63.5,13.3,29.86,WNW,302,9.0,17.0,14,0.00,,,0.00,WUHU216DAVISVP2,2013-04-03 00:44:00,
2013-04-02 17:50:00,63.2,13.1,29.86,WNW,294,11.0,19.0,14,0.00,,,0.00,WUHU216DAVISVP2,2013-04-03 00:50:00,
2013-04-02 17:55:00,62.9,14.4,29.87,WNW,297,12.0,20.0,15,0.00,,,0.00,WUHU216DAVISVP2,2013-04-03 00:55:00,
2013-04-02 18:00:00,63.1,14.6,29.87,WNW,301,10.0,18.0,15,0.00,,,0.00,WUHU216DAVISVP2,2013-04-03 01:00:00,
2013-04-02 18:05:00,62.8,14.4,29.87,WNW,301,11.0,18.0,15,0.00,,,0.00,WUHU216DAVISVP2,2013-04-03 01:05:00,
2013-04-02 18:10:00,62.3,15.5,29.87,WNW,303,11.0,18.0,16,0.00,,,0.00,WUHU216DAVISVP2,2013-04-03 01:10:00,
2013-04-02 18:15:00,62.3,14.0,29.87,WNW,302,11.0,18.0,15,0.00,,,0.00,WUHU216DAVISVP2,2013-04-03 01:15:00,
2013-04-02 18:20:00,62.1,13.8,29.87,NW,304,11.0,18.0,15,0.00,,,0.00,WUHU216DAVISVP2,2013-04-03 01:20:00,
2013-04-02 18:25:00,61.8,15.1,29.87,NW,304,11.0,17.0,16,0.00,,,0.00,WUHU216DAVISVP2,2013-04-03 01:25:00,
2013-04-02 18:30:00,61.3,14.6,29.88,WNW,302,11.0,21.0,16,0.00,,,0.00,WUHU216DAVISVP2,2013-04-03 01:30:00,
2013-04-02 18:35:00,61.0,15.8,29.88,NW,307,10.0,18.0,17,0.00,,,0.00,WUHU216DAVISVP2,2013-04-03 01:35:00,
2013-04-02 18:40:00,60.7,15.6,29.88,NW,306,9.0,14.0,17,0.00,,,0.00,WUHU216DAVISVP2,2013-04-03 01:40:00,
2013-04-02 18:46:00,60.4,15.3,29.89,WNW,303,10.0,15.0,17,0.00,,,0.00,WUHU216DAVISVP2,2013-04-03 01:46:00,
2013-04-02 18:51:00,60.0,15.0,29.89,WNW,302,10.0,17.0,17,0.00,,,0.00,WUHU216DAVISVP2,2013-04-03 01:51:00,
2013-04-02 18:56:00,59.8,16.1,29.89,WNW,292,10.0,15.0,18,0.00,,,0.00,WUHU216DAVISVP2,2013-04-03 01:56:00,
2013-04-02 19:01:00,59.6,16.0,29.89,NW,304,9.0,16.0,18,0.00,,,0.00,WUHU216DAVISVP2,2013-04-03 02:01:00,
2013-04-02 19:07:00,59.3,15.7,29.89,NW,307,9.0,15.0,18,0.00,,,0.00,WUHU216DAVISVP2,2013-04-03 02:07:00,
2013-04-02 19:12:00,59.0,15.5,29.89,NW,306,8.0,14.0,18,0.00,,,0.00,WUHU216DAVISVP2,2013-04-03 02:12:00,
2013-04-02 19:17:00,58.4,16.2,29.89,NW,318,4.0,8.0,19,0.00,,,0.00,WUHU216DAVISVP2,2013-04-03 02:17:00,
2013-04-02 19:22:00,57.7,15.6,29.90,NW,317,3.0,6.0,19,0.00,,,0.00,WUHU216DAVISVP2,2013-04-03 02:22:00,
2013-04-02 19:27:00,57.0,15.1,29.90,NW,312,3.0,6.0,19,0.00,,,0.00,WUHU216DAVISVP2,2013-04-03 02:27:00,
2013-04-02 19:32:00,56.4,15.7,29.91,NW,319,2.0,4.0,20,0.00,,,0.00,WUHU216DAVISVP2,2013-04-03 02:32:00,
2013-04-02 19:37:00,55.7,15.2,29.91,NW,317,3.0,8.0,20,0.00,,,0.00,WUHU216DAVISVP2,2013-04-03 02:37:00,
2013-04-02 19:42:00,56.0,15.4,29.91,WNW,302,5.0,8.0,20,0.00,,,0.00,WUHU216DAVISVP2,2013-04-03 02:42:00,
2013-04-02 19:47:00,56.6,15.9,29.91,WNW,296,7.0,11.0,20,0.00,,,0.00,WUHU216DAVISVP2,2013-04-03 02:47:00,
2013-04-02 19:52:00,57.2,16.4,29.91,WNW,298,8.0,14.0,20,0.00,,,0.00,WUHU216DAVISVP2,2013-04-03 02:52:00,
2013-04-02 19:57:00,57.5,15.5,29.91,WNW,292,9.0,16.0,19,0.00,,,0.00,WUHU216DAVISVP2,2013-04-03 02:57:00,
2013-04-02 20:03:00,57.6,15.6,29.91,WNW,303,9.0,14.0,19,0.00,,,0.00,WUHU216DAVISVP2,2013-04-03 03:03:00,
2013-04-02 20:08:00,57.5,16.6,29.92,WNW,302,9.0,13.0,20,0.00,,,0.00,WUHU216DAVISVP2,2013-04-03 03:08:00,
2013-04-02 20:13:00,56.9,16.2,29.92,NW,316,4.0,9.0,20,0.00,,,0.00,WUHU216DAVISVP2,2013-04-03 03:13:00,
2013-04-02 20:18:00,55.8,15.2,29.92,NW,317,2.0,5.0,20,0.00,,,0.00,WUHU216DAVISVP2,2013-04-03 03:18:00,
2013-04-02 20:23:00,55.2,15.8,29.93,NW,311,3.0,7.0,21,0.00,,,0.00,WUHU216DAVISVP2,2013-04-03 03:23:00,
2013-04-02 20:28:00,54.7,15.4,29.93,NNW,327,2.0,3.0,21,0.00,,,0.00,WUHU216DAVISVP2,2013-04-03 03:28:00,
2013-04-02 20:33:00,54.0,15.9,29.93,North,0,0.0,0.0,22,0.00,,,0.00,WUHU216DAVISVP2,2013-04-03 03:33:00,
2013-04-02 20:38:00,53.4,15.4,29.93,North,0,0.0,0.0,22,0.00,,,0.00,WUHU216DAVISVP2,2013-04-03 03:38:00,
2013-04-02 20:43:00,53.2,16.2,29.93,NNW,327,1.0,1.0,23,0.00,,,0.00,WUHU216DAVISVP2,2013-04-03 03:43:00,
2013-04-02 20:49:00,53.1,16.1,29.93,NNW,329,1.0,3.0,23,0.00,,,0.00,WUHU216DAVISVP2,2013-04-03 03:49:00,
2013-04-02 20:54:00,52.8,15.9,29.94,NNW,327,1.0,2.0,23,0.00,,,0.00,WUHU216DAVISVP2,2013-04-03 03:54:00,
2013-04-02 20:59:00,52.6,15.7,29.94,NNW,327,1.0,1.0,23,0.00,,,0.00,WUHU216DAVISVP2,2013-04-03 03:59:00,
2013-04-02 21:04:00,52.7,15.8,29.94,NW,318,2.0,3.0,23,0.00,,,0.00,WUHU216DAVISVP2,2013-04-03 04:04:00,
2013-04-02 21:09:00,53.1,16.1,29.94,WNW,303,2.0,4.0,23,0.00,,,0.00,WUHU216DAVISVP2,2013-04-03 04:09:00,
2013-04-02 21:14:00,53.5,16.5,29.94,WNW,302,2.0,3.0,23,0.00,,,0.00,WUHU216DAVISVP2,2013-04-03 04:14:00,
2013-04-02 21:19:00,53.6,16.6,29.94,NW,304,2.0,3.0,23,0.00,,,0.00,WUHU216DAVISVP2,2013-04-03 04:19:00,
2013-04-02 21:24:00,53.4,16.4,29.95,NW,309,2.0,3.0,23,0.00,,,0.00,WUHU216DAVISVP2,2013-04-03 04:24:00,
2013-04-02 21:29:00,53.2,16.2,29.95,NW,318,1.0,2.0,23,0.00,,,0.00,WUHU216DAVISVP2,2013-04-03 04:29:00,
2013-04-02 21:34:00,52.9,16.9,29.95,NW,319,1.0,2.0,24,0.00,,,0.00,WUHU216DAVISVP2,2013-04-03 04:34:00,
2013-04-02 21:39:00,53.0,17.0,29.95,NW,306,3.0,4.0,24,0.00,,,0.00,WUHU216DAVISVP2,2013-04-03 04:39:00,
2013-04-02 21:44:00,53.4,17.4,29.95,NW,314,2.0,5.0,24,0.00,,,0.00,WUHU216DAVISVP2,2013-04-03 04:44:00,
2013-04-02 21:49:00,53.5,17.4,29.95,NW,319,2.0,4.0,24,0.00,,,0.00,WUHU216DAVISVP2,2013-04-03 04:49:00,
2013-04-02 21:54:00,53.5,17.4,29.95,NW,314,2.0,4.0,24,0.00,,,0.00,WUHU216DAVISVP2,2013-04-03 04:54:00,
2013-04-02 21:59:00,53.7,17.6,29.95,NW,315,3.0,4.0,24,0.00,,,0.00,WUHU216DAVISVP2,2013-04-03 04:59:00,
2013-04-02 22:04:00,53.9,17.8,29.95,NW,314,3.0,5.0,24,0.00,,,0.00,WUHU216DAVISVP2,2013-04-03 05:04:00,
2013-04-02 22:09:00,54.0,17.9,29.95,NW,314,3.0,5.0,24,0.00,,,0.00,WUHU216DAVISVP2,2013-04-03 05:09:00,
2013-04-02 22:15:00,54.2,18.0,29.95,NW,306,4.0,6.0,24,0.00,,,0.00,WUHU216DAVISVP2,2013-04-03 05:15:00,
2013-04-02 22:20:00,54.4,18.2,29.95,NW,312,3.0,7.0,24,0.00,,,0.00,WUHU216DAVISVP2,2013-04-03 05:20:00,
2013-04-02 22:25:00,54.4,18.2,29.95,NW,312,3.0,6.0,24,0.00,,,0.00,WUHU216DAVISVP2,2013-04-03 05:25:00,
2013-04-02 22:30:00,54.2,18.0,29.95,NW,322,2.0,4.0,24,0.00,,,0.00,WUHU216DAVISVP2,2013-04-03 05:30:00,
2013-04-02 22:35:00,53.8,17.7,29.96,NW,322,2.0,4.0,24,0.00,,,0.00,WUHU216DAVISVP2,2013-04-03 05:35:00,
2013-04-02 22:40:00,53.4,18.3,29.96,NW,320,2.0,3.0,25,0.00,,,0.00,WUHU216DAVISVP2,2013-04-03 05:40:00,
2013-04-02 22:45:00,53.1,18.0,29.96,NW,323,2.0,3.0,25,0.00,,,0.00,WUHU216DAVISVP2,2013-04-03 05:45:00,
2013-04-02 22:50:00,52.8,17.8,29.96,NW,310,1.0,2.0,25,0.00,,,0.00,WUHU216DAVISVP2,2013-04-03 05:50:00,
2013-04-02 22:55:00,52.5,18.4,29.96,NW,310,2.0,4.0,26,0.00,,,0.00,WUHU216DAVISVP2,2013-04-03 05:55:00,
2013-04-02 23:00:00,51.7,17.7,29.96,NW,325,3.0,4.0,26,0.00,,,0.00,WUHU216DAVISVP2,2013-04-03 06:00:00,
2013-04-02 23:05:00,51.4,18.3,29.96,NW,318,2.0,3.0,27,0.00,,,0.00,WUHU216DAVISVP2,2013-04-03 06:05:00,
2013-04-02 23:10:00,52.6,18.5,29.96,WNW,299,3.0,7.0,26,0.00,,,0.00,WUHU216DAVISVP2,2013-04-03 06:10:00,
2013-04-02 23:15:00,53.4,18.3,29.96,WNW,289,3.0,5.0,25,0.00,,,0.00,WUHU216DAVISVP2,2013-04-03 06:15:00,
2013-04-02 23:20:00,53.9,18.7,29.97,WNW,290,4.0,5.0,25,0.00,,,0.00,WUHU216DAVISVP2,2013-04-03 06:20:00,
2013-04-02 23:26:00,54.0,18.8,29.96,West,271,3.0,5.0,25,0.00,,,0.00,WUHU216DAVISVP2,2013-04-03 06:26:00,
2013-04-02 23:31:00,53.2,18.1,29.97,WNW,283,5.0,7.0,25,0.00,,,0.00,WUHU216DAVISVP2,2013-04-03 06:31:00,
2013-04-02 23:36:00,52.7,17.7,29.97,WNW,283,5.0,7.0,25,0.00,,,0.00,WUHU216DAVISVP2,2013-04-03 06:36:00,
2013-04-02 23:41:00,52.6,17.6,29.97,West,279,4.0,7.0,25,0.00,,,0.00,WUHU216DAVISVP2,2013-04-03 06:41:00,
2013-04-02 23:46:00,52.7,17.7,29.96,WNW,282,5.0,8.0,25,0.00,,,0.00,WUHU216DAVISVP2,2013-04-03 06:46:00,
2013-04-02 23:51:00,52.8,17.8,29.97,WNW,285,5.0,8.0,25,0.00,,,0.00,WUHU216DAVISVP2,2013-04-03 06:51:00,
2013-04-02 23:56:00,52.8,17.8,29.97,WNW,286,5.0,8.0,25,0.00,,,0.00,WUHU216DAVISVP2,2013-04-03 06:56:00,